Clines Corners, New Mexico
Current Conditions -  °F | °C
As of 10:53 AM on Monday 24 Nov 2014 (Local Time) from KCQC Reporting Station
Clear Clear  
Wind Chill: 21°   Ceiling: Unl
Heat Index: 34°   Visibility: 10mi
Dew Point:   Wind: 25mph
Humidity: 31%   Direction: 300°WNW
Pressure: 30.05"   Gusts: 35mph
Location:  35.01°N, 105.67°W
Report Text: KCQC 241753Z AUTO 30022G30KT 10SM CLR 01/M14 A3005 RMK AO2 PK WND 30035/1707 SLP185 T00111144 10011 21072 50007
Loading
Personal Weather Stations






























Interactive Weather Map New forecast layout! Learn more

10-Day Weather Forecast

Advertisements
Track Severe Weather on mobile